createdAt,value
2019-05-26T00:01:38.653Z,42.77
2019-05-26T00:04:10.643Z,28.40
2019-05-26T00:06:42.606Z,35.03
2019-05-26T00:09:14.609Z,28.33
2019-05-26T00:11:46.579Z,28.53
2019-05-26T00:14:18.635Z,32.07
2019-05-26T00:16:50.596Z,28.20
2019-05-26T00:19:22.587Z,27.63
2019-05-26T00:21:54.557Z,28.43
2019-05-26T00:24:26.576Z,29.33
2019-05-26T00:26:58.573Z,22.93
2019-05-26T00:29:30.552Z,20.00
2019-05-26T00:32:02.505Z,26.47
2019-05-26T00:34:34.493Z,20.77
2019-05-26T00:37:06.483Z,24.30
2019-05-26T00:39:38.545Z,22.57
2019-05-26T00:42:10.529Z,23.70
2019-05-26T00:44:42.543Z,20.83
2019-05-26T00:47:14.542Z,23.07
2019-05-26T00:49:46.598Z,23.63
2019-05-26T00:52:18.566Z,22.33
2019-05-26T00:54:50.561Z,21.20
2019-05-26T00:57:22.516Z,50.13
2019-05-26T00:59:54.496Z,37.93
2019-05-26T01:02:26.460Z,38.00
2019-05-26T01:04:58.427Z,25.73
2019-05-26T01:07:30.408Z,31.67
2019-05-26T01:10:02.459Z,25.50
2019-05-26T01:12:34.417Z,27.10
2019-05-26T01:15:07.021Z,31.57
2019-05-26T01:17:39.037Z,29.07
2019-05-26T01:20:11.029Z,25.83
2019-05-26T01:22:43.013Z,33.67
2019-05-26T01:25:15.048Z,34.03
2019-05-26T01:27:47.203Z,29.27
2019-05-26T01:30:23.627Z,33.20
2019-05-26T01:32:55.670Z,29.90
2019-05-26T01:35:27.641Z,28.93
2019-05-26T01:37:59.922Z,33.60
2019-05-26T01:40:36.753Z,31.93
2019-05-26T01:43:08.810Z,30.90
2019-05-26T01:45:40.849Z,28.47
2019-05-26T01:48:12.846Z,30.57
2019-05-26T01:50:44.949Z,30.10
2019-05-26T01:53:16.942Z,26.80
2019-05-26T01:55:48.962Z,31.93
2019-05-26T01:58:20.927Z,29.13
2019-05-26T02:00:52.901Z,23.13
2019-05-26T02:03:24.862Z,25.03
2019-05-26T02:05:56.818Z,22.73
2019-05-26T02:08:38.762Z,21.03
2019-05-26T02:11:02.970Z,21.63
2019-05-26T02:13:34.989Z,19.37
2019-05-26T02:16:06.959Z,21.83
2019-05-26T02:18:38.925Z,22.27
2019-05-26T02:21:14.691Z,21.63
2019-05-26T02:23:44.786Z,21.83
2019-05-26T02:26:16.733Z,20.87
2019-05-26T02:28:48.816Z,23.13
2019-05-26T02:31:20.716Z,22.23
2019-05-26T02:33:52.714Z,22.47
2019-05-26T02:36:24.701Z,21.10
2019-05-26T02:39:02.469Z,36.27
2019-05-26T02:41:33.287Z,22.67
2019-05-26T02:44:05.304Z,66.93
2019-05-26T02:46:37.374Z,38.80
2019-05-26T02:49:09.345Z,45.33
2019-05-26T02:51:41.330Z,19.87
2019-05-26T02:54:13.320Z,19.87
2019-05-26T02:56:45.313Z,19.30
2019-05-26T02:59:17.328Z,18.47
2019-05-26T03:02:02.090Z,22.93
2019-05-26T03:04:23.246Z,24.70
2019-05-26T03:06:56.323Z,31.87
2019-05-26T03:09:28.760Z,37.03
2019-05-26T03:12:02.353Z,30.33
2019-05-26T03:14:34.369Z,24.43
2019-05-26T03:17:06.345Z,25.87
2019-05-26T03:19:40.168Z,27.43
2019-05-26T03:22:13.963Z,26.27
2019-05-26T03:24:47.661Z,24.03
2019-05-26T03:27:19.756Z,29.73
2019-05-26T03:29:51.893Z,24.07
2019-05-26T03:32:23.851Z,21.80
2019-05-26T03:34:55.870Z,23.17
2019-05-26T03:37:27.843Z,21.80
2019-05-26T03:39:59.888Z,24.27
2019-05-26T03:42:31.849Z,23.10
2019-05-26T03:45:04.996Z,19.27
2019-05-26T03:47:36.970Z,23.70
2019-05-26T03:50:08.971Z,22.07
2019-05-26T03:52:40.969Z,22.47
2019-05-26T03:55:12.935Z,27.33
2019-05-26T03:57:44.920Z,21.63
2019-05-26T04:00:16.963Z,22.23
2019-05-26T04:02:48.926Z,21.60
2019-05-26T04:05:20.908Z,21.70
2019-05-26T04:07:52.876Z,19.83
2019-05-26T04:10:24.872Z,22.73
2019-05-26T04:12:56.896Z,20.90
2019-05-26T04:15:28.908Z,22.03
2019-05-26T04:18:00.909Z,21.67
2019-05-26T04:20:32.891Z,21.83
2019-05-26T04:23:04.930Z,21.27
2019-05-26T04:25:36.909Z,21.57
2019-05-26T04:28:08.874Z,22.57
2019-05-26T04:30:40.867Z,21.97
2019-05-26T04:33:12.849Z,23.07
2019-05-26T04:35:44.851Z,24.60
2019-05-26T04:38:16.880Z,22.20
2019-05-26T04:40:48.830Z,22.67
2019-05-26T04:43:20.812Z,20.97
2019-05-26T04:45:52.781Z,24.87
2019-05-26T04:48:24.781Z,23.30
2019-05-26T04:50:56.754Z,24.73
2019-05-26T04:53:28.754Z,25.07
2019-05-26T04:56:00.744Z,23.53
2019-05-26T04:58:32.743Z,23.90
2019-05-26T05:01:04.701Z,23.90
2019-05-26T05:03:36.666Z,22.67
2019-05-26T05:06:08.655Z,24.47
2019-05-26T05:08:40.688Z,22.00
2019-05-26T05:11:12.702Z,23.93
2019-05-26T05:13:44.690Z,22.10
2019-05-26T05:16:16.660Z,23.53
2019-05-26T05:18:48.682Z,22.20
2019-05-26T05:21:20.661Z,23.30
2019-05-26T05:23:52.617Z,24.50
2019-05-26T05:26:24.583Z,24.27
2019-05-26T05:28:56.577Z,24.43
2019-05-26T05:31:28.540Z,23.77
2019-05-26T05:34:00.536Z,24.73
2019-05-26T05:36:32.570Z,21.93
2019-05-26T05:39:06.584Z,23.97
2019-05-26T05:41:38.540Z,21.33
2019-05-26T05:44:10.547Z,23.90
2019-05-26T05:46:42.658Z,21.90
2019-05-26T05:49:14.654Z,22.13
2019-05-26T05:51:46.643Z,23.23
2019-05-26T05:54:18.622Z,22.00
2019-05-26T05:56:50.603Z,21.50
2019-05-26T05:59:22.582Z,21.70
2019-05-26T06:01:54.583Z,21.70
2019-05-26T06:04:26.633Z,20.30
2019-05-26T06:06:58.588Z,20.90
2019-05-26T06:09:30.580Z,21.80
2019-05-26T06:12:02.574Z,20.50
2019-05-26T06:14:34.613Z,20.27
2019-05-26T06:17:10.335Z,19.90
2019-05-26T06:19:40.544Z,18.90
2019-05-26T06:22:12.578Z,17.33
2019-05-26T06:24:44.565Z,17.63
2019-05-26T06:27:16.542Z,16.57
2019-05-26T06:29:58.592Z,17.55
2019-05-26T06:32:22.433Z,17.00
2019-05-26T06:34:54.452Z,16.12
2019-05-26T06:37:26.426Z,15.20
2019-05-26T06:39:58.490Z,15.10
2019-05-26T06:42:30.499Z,13.78
2019-05-26T06:45:02.757Z,14.00
2019-05-26T06:47:34.741Z,13.28
2019-05-26T06:50:07.240Z,12.82
2019-05-26T06:52:39.234Z,12.10
2019-05-26T06:55:11.448Z,12.28
2019-05-26T06:57:43.435Z,11.22
2019-05-26T07:00:15.547Z,11.68
2019-05-26T07:02:47.569Z,9.73
2019-05-26T07:05:19.616Z,10.08
2019-05-26T07:07:51.873Z,11.10
2019-05-26T07:10:23.809Z,10.15
2019-05-26T07:12:55.819Z,9.48
2019-05-26T07:15:27.783Z,9.60
2019-05-26T07:17:59.789Z,9.40
2019-05-26T07:20:31.747Z,9.60
2019-05-26T07:23:04.654Z,8.55
2019-05-26T07:25:37.643Z,9.15
2019-05-26T07:28:09.659Z,8.70
2019-05-26T07:30:41.616Z,9.40
2019-05-26T07:33:15.206Z,9.30
2019-05-26T07:35:49.789Z,9.38
2019-05-26T07:38:21.128Z,8.63
2019-05-26T07:40:53.129Z,9.10
2019-05-26T07:43:27.986Z,9.00
2019-05-26T07:45:59.046Z,7.97
2019-05-26T07:48:35.367Z,9.45
2019-05-26T07:51:05.035Z,9.23
2019-05-26T07:53:37.086Z,10.18
2019-05-26T07:56:09.093Z,9.28
2019-05-26T07:58:41.126Z,10.40
2019-05-26T08:01:13.127Z,9.88
2019-05-26T08:03:45.125Z,9.85
2019-05-26T08:06:17.152Z,10.32
2019-05-26T08:08:49.182Z,10.00
2019-05-26T08:11:21.149Z,9.65
2019-05-26T08:13:53.147Z,10.32
2019-05-26T08:16:25.167Z,10.03
2019-05-26T08:18:57.174Z,10.58
2019-05-26T08:21:29.217Z,9.25
2019-05-26T08:24:01.282Z,9.83
2019-05-26T08:26:33.257Z,10.78
2019-05-26T08:29:05.248Z,11.40
2019-05-26T08:31:37.254Z,10.85
2019-05-26T08:34:09.244Z,10.10
2019-05-26T08:36:41.241Z,10.58
2019-05-26T08:39:13.321Z,10.40
2019-05-26T08:41:45.331Z,10.28
2019-05-26T08:44:17.392Z,9.98
2019-05-26T08:46:49.360Z,10.65
2019-05-26T08:49:21.424Z,10.90
2019-05-26T08:51:53.423Z,10.43
2019-05-26T08:54:25.442Z,10.35
2019-05-26T08:56:57.422Z,9.70
2019-05-26T08:59:29.492Z,9.33
2019-05-26T09:02:01.511Z,10.55
2019-05-26T09:04:33.518Z,9.55
2019-05-26T09:07:05.570Z,10.23
2019-05-26T09:09:37.622Z,9.23
2019-05-26T09:12:09.664Z,8.98
2019-05-26T09:14:41.704Z,9.38
2019-05-26T09:17:13.726Z,9.38
2019-05-26T09:19:45.741Z,9.58
2019-05-26T09:22:17.775Z,9.75
2019-05-26T09:24:49.823Z,9.78
2019-05-26T09:27:21.850Z,9.05
2019-05-26T09:29:53.925Z,9.23
2019-05-26T09:32:26.030Z,8.55
2019-05-26T09:34:58.038Z,9.03
2019-05-26T09:37:30.074Z,8.40
2019-05-26T09:40:02.342Z,8.98
2019-05-26T09:42:34.391Z,9.33
2019-05-26T09:45:06.582Z,8.28
2019-05-26T09:47:38.598Z,7.47
2019-05-26T09:50:11.019Z,8.53
2019-05-26T09:52:43.030Z,7.75
2019-05-26T09:55:15.315Z,7.50
2019-05-26T09:57:47.365Z,8.30
2019-05-26T10:00:19.664Z,8.00
2019-05-26T10:02:51.744Z,8.48
2019-05-26T10:05:23.743Z,9.23
2019-05-26T10:07:55.787Z,7.40
2019-05-26T10:10:27.845Z,7.30
2019-05-26T10:12:59.909Z,7.85
2019-05-26T10:15:32.052Z,7.40
2019-05-26T10:18:04.365Z,7.58
2019-05-26T10:20:36.441Z,7.53
2019-05-26T10:23:08.436Z,6.35
2019-05-26T10:25:40.499Z,7.72
2019-05-26T10:28:12.491Z,7.30
2019-05-26T10:30:44.509Z,7.17
2019-05-26T10:33:16.572Z,7.00
2019-05-26T10:35:48.584Z,6.28
2019-05-26T10:38:20.589Z,6.10
2019-05-26T10:40:52.623Z,7.62
2019-05-26T10:43:24.666Z,7.00
2019-05-26T10:45:56.711Z,6.92
2019-05-26T10:48:28.734Z,6.20
2019-05-26T10:51:00.717Z,5.87
2019-05-26T10:53:32.761Z,6.97
2019-05-26T10:56:04.810Z,6.55
2019-05-26T10:58:36.857Z,7.58
2019-05-26T11:01:08.874Z,6.50
2019-05-26T11:03:40.869Z,6.55
2019-05-26T11:06:12.875Z,5.95
2019-05-26T11:08:44.899Z,6.90
2019-05-26T11:11:16.885Z,6.20
2019-05-26T11:14:01.785Z,6.60
2019-05-26T11:16:22.838Z,6.62
2019-05-26T11:18:54.819Z,5.78
2019-05-26T11:21:26.880Z,6.08
2019-05-26T11:23:58.838Z,5.87
2019-05-26T11:26:30.837Z,6.20
2019-05-26T11:29:02.858Z,6.28
2019-05-26T11:31:34.936Z,6.85
2019-05-26T11:34:06.958Z,6.17
2019-05-26T11:36:38.953Z,6.10
2019-05-26T11:39:11.028Z,6.20
2019-05-26T11:41:43.057Z,6.35
2019-05-26T11:44:17.898Z,5.72
2019-05-26T11:46:49.065Z,5.78
2019-05-26T11:49:21.030Z,5.45
2019-05-26T11:51:53.076Z,5.50
2019-05-26T11:54:25.053Z,5.85
2019-05-26T11:56:57.136Z,5.15
2019-05-26T11:59:29.123Z,5.40
2019-05-26T12:02:01.130Z,5.33
2019-05-26T12:04:33.133Z,5.53
2019-05-26T12:07:05.132Z,4.90
2019-05-26T12:09:37.103Z,4.50
2019-05-26T12:12:09.228Z,5.35
2019-05-26T12:14:41.201Z,5.30
2019-05-26T12:17:13.219Z,5.15
2019-05-26T12:19:45.213Z,5.28
2019-05-26T12:22:17.220Z,5.45
2019-05-26T12:24:49.239Z,5.45
2019-05-26T12:27:21.257Z,4.58
2019-05-26T12:29:53.239Z,4.92
2019-05-26T12:32:25.241Z,5.03
2019-05-26T12:34:57.218Z,4.50
2019-05-26T12:37:29.212Z,4.95
2019-05-26T12:40:01.238Z,5.12
2019-05-26T12:42:33.209Z,4.35
2019-05-26T12:45:05.362Z,4.50
2019-05-26T12:47:37.513Z,4.37
2019-05-26T12:50:10.399Z,4.50
2019-05-26T12:52:42.388Z,4.55
2019-05-26T12:55:16.179Z,4.58
2019-05-26T12:57:48.200Z,4.08
2019-05-26T13:00:20.484Z,4.78
2019-05-26T13:02:52.526Z,4.10
2019-05-26T13:05:24.537Z,3.85
2019-05-26T13:07:56.846Z,4.22
2019-05-26T13:10:28.857Z,3.72
2019-05-26T13:13:00.942Z,3.80
2019-05-26T13:15:32.938Z,4.12
2019-05-26T13:18:04.955Z,4.28
2019-05-26T13:20:37.761Z,4.47
2019-05-26T13:23:09.779Z,4.30
2019-05-26T13:25:41.757Z,3.95
2019-05-26T13:28:13.763Z,4.10
2019-05-26T13:30:45.765Z,4.15
2019-05-26T13:33:17.792Z,4.55
2019-05-26T13:35:49.759Z,4.05
2019-05-26T13:38:21.889Z,4.58
2019-05-26T13:40:53.931Z,5.40
2019-05-26T13:43:25.920Z,6.53
2019-05-26T13:45:57.948Z,4.90
2019-05-26T13:48:29.946Z,5.35
2019-05-26T13:51:01.997Z,5.00
2019-05-26T13:53:33.972Z,6.35
2019-05-26T13:56:06.012Z,4.92
2019-05-26T13:58:38.015Z,5.10
2019-05-26T14:01:10.023Z,5.20
2019-05-26T14:03:42.109Z,5.15
2019-05-26T14:06:14.148Z,5.03
2019-05-26T14:08:46.135Z,5.37
2019-05-26T14:11:18.263Z,5.40
2019-05-26T14:13:50.333Z,5.65
2019-05-26T14:16:23.197Z,4.70
2019-05-26T14:18:55.730Z,5.08
2019-05-26T14:21:27.726Z,5.37
2019-05-26T14:23:59.841Z,5.25
2019-05-26T14:26:31.856Z,5.37
2019-05-26T14:29:03.850Z,4.70
2019-05-26T14:31:35.868Z,4.65
2019-05-26T14:34:07.923Z,5.58
2019-05-26T14:36:39.955Z,4.92
2019-05-26T14:39:11.979Z,4.53
2019-05-26T14:41:44.025Z,5.12
2019-05-26T14:44:16.026Z,5.40
2019-05-26T14:46:48.033Z,4.90
2019-05-26T14:49:20.165Z,5.17
2019-05-26T14:51:52.181Z,5.10
2019-05-26T14:54:24.219Z,4.80
2019-05-26T14:56:56.239Z,4.70
2019-05-26T14:59:28.206Z,4.80
2019-05-26T15:02:00.216Z,5.78
2019-05-26T15:04:32.224Z,4.92
2019-05-26T15:07:04.259Z,5.03
2019-05-26T15:09:36.269Z,4.95
2019-05-26T15:12:08.289Z,5.33
2019-05-26T15:14:40.285Z,5.05
2019-05-26T15:17:12.447Z,6.12
2019-05-26T15:19:44.444Z,4.72
2019-05-26T15:22:16.478Z,4.55
2019-05-26T15:24:48.487Z,4.72
2019-05-26T15:27:20.466Z,4.78
2019-05-26T15:29:52.481Z,4.90
2019-05-26T15:32:24.494Z,4.35
2019-05-26T15:34:56.535Z,4.62
2019-05-26T15:37:28.506Z,4.37
2019-05-26T15:40:00.533Z,4.28
2019-05-26T15:42:32.516Z,4.75
2019-05-26T15:45:04.829Z,4.35
2019-05-26T15:47:36.923Z,4.05
2019-05-26T15:50:08.968Z,4.22
2019-05-26T15:52:41.291Z,4.45
2019-05-26T15:55:13.723Z,3.98
2019-05-26T15:57:45.783Z,4.20
2019-05-26T16:00:18.279Z,3.77
2019-05-26T16:02:50.325Z,3.70
2019-05-26T16:05:22.406Z,3.37
2019-05-26T16:07:54.429Z,3.67
2019-05-26T16:10:26.457Z,4.00
2019-05-26T16:12:58.506Z,3.95
2019-05-26T16:15:30.554Z,3.90
2019-05-26T16:18:02.656Z,3.55
2019-05-26T16:20:34.684Z,3.40
2019-05-26T16:23:08.816Z,3.17
2019-05-26T16:25:40.659Z,4.33
2019-05-26T16:28:12.703Z,3.72
2019-05-26T16:30:44.784Z,3.37
2019-05-26T16:33:16.817Z,3.60
2019-05-26T16:35:48.969Z,3.83
2019-05-26T16:38:21.034Z,4.03
2019-05-26T16:40:53.149Z,3.25
2019-05-26T16:43:25.152Z,3.12
2019-05-26T16:45:57.218Z,3.10
2019-05-26T16:48:29.211Z,3.08
2019-05-26T16:51:01.351Z,3.40
2019-05-26T16:53:33.409Z,3.10
2019-05-26T16:56:05.535Z,3.70
2019-05-26T16:58:37.512Z,3.37
2019-05-26T17:01:09.581Z,3.30
2019-05-26T17:03:41.581Z,3.25
2019-05-26T17:06:13.640Z,3.08
2019-05-26T17:08:45.619Z,3.00
2019-05-26T17:11:17.658Z,3.40
2019-05-26T17:13:49.692Z,3.52
2019-05-26T17:16:21.680Z,3.12
2019-05-26T17:18:53.666Z,3.00
2019-05-26T17:21:25.731Z,3.00
2019-05-26T17:23:57.745Z,3.12
2019-05-26T17:26:29.750Z,3.22
2019-05-26T17:29:01.761Z,2.83
2019-05-26T17:31:33.805Z,3.60
2019-05-26T17:34:05.794Z,2.90
2019-05-26T17:36:37.888Z,3.05
2019-05-26T17:39:09.880Z,3.30
2019-05-26T17:41:42.101Z,2.90
2019-05-26T17:44:14.130Z,2.95
2019-05-26T17:46:46.292Z,3.22
2019-05-26T17:49:18.322Z,3.30
2019-05-26T17:51:50.503Z,3.12
2019-05-26T17:54:22.575Z,2.77
2019-05-26T17:56:54.700Z,3.08
2019-05-26T17:59:26.794Z,3.12
2019-05-26T18:01:58.856Z,3.27
2019-05-26T18:04:30.999Z,3.42
2019-05-26T18:07:03.168Z,2.77
2019-05-26T18:09:43.643Z,3.00
2019-05-26T18:12:09.232Z,3.42
2019-05-26T18:14:41.387Z,3.60
2019-05-26T18:17:13.572Z,3.52
2019-05-26T18:19:45.661Z,3.08
2019-05-26T18:22:17.763Z,2.90
2019-05-26T18:24:56.437Z,3.55
2019-05-26T18:27:23.902Z,3.42
2019-05-26T18:29:56.074Z,2.98
2019-05-26T18:32:28.092Z,3.30
2019-05-26T18:35:00.250Z,3.58
2019-05-26T18:37:32.337Z,3.33
2019-05-26T18:40:05.034Z,3.42
2019-05-26T18:42:37.078Z,3.37
2019-05-26T18:45:09.296Z,3.80
2019-05-26T18:47:41.354Z,3.50
2019-05-26T18:50:13.754Z,4.08
2019-05-26T18:52:45.860Z,3.77
2019-05-26T18:55:17.941Z,3.98
2019-05-26T18:57:50.057Z,4.05
2019-05-26T19:00:22.251Z,3.77
2019-05-26T19:02:54.550Z,3.60
2019-05-26T19:05:33.813Z,3.08
2019-05-26T19:08:01.557Z,3.90
2019-05-26T19:10:33.661Z,3.40
2019-05-26T19:13:05.663Z,3.42
2019-05-26T19:15:37.785Z,3.33
2019-05-26T19:18:19.428Z,3.50
2019-05-26T19:20:43.924Z,3.98
2019-05-26T19:23:15.976Z,4.05
2019-05-26T19:25:48.042Z,3.92
2019-05-26T19:28:20.063Z,3.77
2019-05-26T19:30:52.082Z,3.65
2019-05-26T19:33:24.170Z,4.50
2019-05-26T19:35:56.405Z,4.10
2019-05-26T19:38:28.449Z,4.87
2019-05-26T19:41:00.668Z,4.30
2019-05-26T19:43:32.787Z,4.22
2019-05-26T19:46:04.907Z,4.12
2019-05-26T19:48:37.486Z,4.83
2019-05-26T19:51:09.675Z,5.80
2019-05-26T19:53:41.766Z,4.72
2019-05-26T19:56:13.872Z,4.22
2019-05-26T19:58:45.933Z,4.75
2019-05-26T20:01:18.062Z,4.85
2019-05-26T20:03:50.113Z,3.92
2019-05-26T20:06:22.229Z,4.45
2019-05-26T20:08:54.316Z,4.45
2019-05-26T20:11:26.357Z,4.83
2019-05-26T20:13:58.466Z,4.10
2019-05-26T20:16:31.015Z,4.47
2019-05-26T20:19:03.553Z,4.10
2019-05-26T20:21:35.666Z,4.30
2019-05-26T20:24:07.886Z,4.37
2019-05-26T20:26:40.027Z,4.83
2019-05-26T20:29:12.033Z,5.22
2019-05-26T20:31:44.062Z,4.87
2019-05-26T20:34:16.072Z,4.58
2019-05-26T20:36:48.239Z,4.95
2019-05-26T20:39:20.260Z,4.33
2019-05-26T20:41:52.371Z,4.58
2019-05-26T20:44:24.396Z,5.10
2019-05-26T20:46:56.550Z,5.05
2019-05-26T20:49:44.375Z,4.55
2019-05-26T20:52:02.592Z,4.58
2019-05-26T20:54:34.765Z,4.97
2019-05-26T20:57:06.790Z,4.40
2019-05-26T20:59:38.979Z,5.30
2019-05-26T21:02:11.059Z,4.60
2019-05-26T21:04:43.150Z,4.78
2019-05-26T21:07:15.143Z,4.90
2019-05-26T21:09:47.251Z,5.25
2019-05-26T21:12:19.257Z,5.58
2019-05-26T21:14:51.301Z,5.20
2019-05-26T21:17:23.334Z,5.30
2019-05-26T21:19:55.377Z,5.97
2019-05-26T21:22:27.380Z,5.80
2019-05-26T21:24:59.399Z,4.87
2019-05-26T21:27:31.408Z,4.78
2019-05-26T21:30:04.461Z,5.10
2019-05-26T21:32:36.473Z,4.90
2019-05-26T21:35:08.778Z,5.35
2019-05-26T21:37:40.733Z,5.33
2019-05-26T21:40:13.104Z,4.67
2019-05-26T21:42:45.216Z,4.70
2019-05-26T21:45:17.255Z,4.70
2019-05-26T21:47:49.291Z,4.47
2019-05-26T21:50:21.338Z,4.92
2019-05-26T21:52:53.299Z,4.87
2019-05-26T21:55:25.286Z,4.63
2019-05-26T21:57:57.340Z,4.63
2019-05-26T22:00:34.206Z,4.62
2019-05-26T22:03:06.318Z,4.80
2019-05-26T22:05:38.429Z,5.17
2019-05-26T22:08:10.422Z,5.58
2019-05-26T22:10:42.386Z,5.33
2019-05-26T22:13:14.344Z,5.97
2019-05-26T22:15:46.398Z,6.40
2019-05-26T22:18:18.381Z,5.77
2019-05-26T22:20:50.429Z,5.77
2019-05-26T22:23:22.373Z,6.10
2019-05-26T22:25:54.389Z,5.07
2019-05-26T22:28:26.400Z,5.13
2019-05-26T22:30:58.408Z,5.28
2019-05-26T22:33:30.368Z,5.30
2019-05-26T22:36:02.391Z,5.20
2019-05-26T22:38:34.356Z,5.57
2019-05-26T22:41:06.317Z,5.13
2019-05-26T22:43:38.276Z,6.03
2019-05-26T22:46:10.318Z,5.97
2019-05-26T22:48:42.339Z,5.40
2019-05-26T22:51:14.333Z,5.07
2019-05-26T22:53:46.329Z,5.20
2019-05-26T22:56:18.290Z,5.53
2019-05-26T22:58:50.246Z,5.20
2019-05-26T23:01:22.250Z,5.33
2019-05-26T23:03:54.175Z,5.63
2019-05-26T23:06:26.149Z,6.73
2019-05-26T23:08:58.104Z,5.58
2019-05-26T23:11:30.094Z,5.93
2019-05-26T23:14:02.071Z,5.37
2019-05-26T23:16:34.039Z,5.03
2019-05-26T23:19:18.645Z,4.97
2019-05-26T23:21:39.953Z,5.57
2019-05-26T23:24:11.893Z,5.30
2019-05-26T23:26:43.879Z,5.30
2019-05-26T23:29:15.842Z,5.53
2019-05-26T23:31:47.811Z,5.70
2019-05-26T23:34:19.774Z,5.50
2019-05-26T23:36:51.724Z,5.67
2019-05-26T23:39:23.709Z,6.70
2019-05-26T23:41:55.699Z,5.40
2019-05-26T23:44:27.660Z,6.30
2019-05-26T23:46:59.612Z,6.13
2019-05-26T23:49:31.585Z,5.93
2019-05-26T23:52:03.549Z,5.67
2019-05-26T23:54:35.535Z,6.03
2019-05-26T23:57:07.498Z,5.93
2019-05-26T23:59:39.481Z,5.83
